Latest Weather Observations for Proserpine

IDQ60801

Issued at 10:02 am EST Saturday 6 February 2016 (issued every 30 minutes, with the page automatically refreshed every 10 minutes)

About weather observations | Map of weather stations | Latest weather observations for QLD | Other Formats
Station Details ID: 033247 Name: PROSERPINE AIRPORT Lat: -20.49 Lon: 148.56 Height: 19.7 m
Data from the previous 72 hours. | See also: Recent months at Proserpine
Date/Time
EST
Temp
°C
App
Temp
°C
Dew
Point
Rel
Hum
%
Delta-T
°C
Wind Press
QNH
hPa
Press
MSL
hPa
Rain
since 9 am
mm
Dir
 
Spd
km/h
Gust
km/h
Spd
kts
Gust
kts
06/10:00am 27.3 31.4 25.7 91 1.1 SE 15 20 8 11 1005.3 1005.2 0.0
06/09:51am 27.0 31.9 25.8 93 0.8 SE 11 19 6 10 1005.4 1005.3 0.0
06/09:30am 26.3 31.7 25.4 95 0.6 SSE 7 9 4 5 1005.3 1005.2 0.0
06/09:00am 25.9 31.0 25.0 95 0.6 SE 7 9 4 5 1005.1 1005.0 143.8
06/08:42am 26.0 31.0 24.8 93 0.8 SE 7 13 4 7 1004.9 1004.8 143.4
06/08:30am 26.0 30.6 24.8 93 0.8 SSE 9 11 5 6 1004.7 1004.6 143.4
06/08:00am 25.6 30.3 24.9 96 0.5 SSE 9 15 5 8 1004.3 1004.2 143.4
06/07:54am 25.4 30.0 24.7 96 0.5 SSE 9 15 5 8 1004.2 1004.1 143.4
06/07:32am 25.2 29.3 24.5 96 0.5 SSE 11 15 6 8 1003.9 1003.8 143.4
06/07:30am 25.2 29.3 24.5 96 0.5 SSE 11 15 6 8 1003.9 1003.8 143.4
06/07:00am 25.1 29.6 24.6 97 0.3 S 9 11 5 6 1003.6 1003.5 143.4
06/06:30am 24.9 29.3 24.4 97 0.3 SSW 9 13 5 7 1003.2 1003.1 143.4
06/06:00am 24.8 28.7 24.3 97 0.3 S 11 15 6 8 1002.9 1002.8 143.4
06/05:30am 24.9 29.8 24.4 97 0.3 SSW 6 11 3 6 1002.8 1002.7 143.4
06/05:00am 24.8 29.7 24.3 97 0.3 WNW 6 7 3 4 1002.8 1002.7 143.0
06/04:30am 24.8 29.7 24.3 97 0.3 WNW 6 6 3 3 1002.8 1002.7 142.6
06/04:01am 24.8 29.5 24.3 97 0.3 NNW 7 9 4 5 1002.8 1002.7 142.2
06/04:00am 24.8 29.5 24.3 97 0.3 NNW 7 9 4 5 1002.8 1002.7 142.2
06/03:36am 24.8 30.8 24.3 97 0.3 CALM 0 0 0 0 1002.7 1002.6 141.4
06/03:30am 24.8 30.8 24.3 97 0.3 CALM 0 0 0 0 1002.7 1002.6 141.2
06/03:06am 24.7 29.5 24.2 97 0.3 SE 6 7 3 4 1002.8 1002.7 140.2
06/03:00am 24.8 29.5 24.3 97 0.3 SE 7 13 4 7 1002.8 1002.7 140.0
06/02:58am 24.8 29.5 24.3 97 0.3 SE 7 13 4 7 1002.8 1002.7 139.8
06/02:30am 24.9 29.3 24.4 97 0.3 SE 9 13 5 7 1002.8 1002.7 138.2
06/02:20am 24.9 28.5 24.4 97 0.3 SE 13 19 7 10 1002.8 1002.7 137.4
06/02:00am 25.1 28.8 24.6 97 0.3 SE 13 19 7 10 1002.3 1002.2 135.4
06/01:46am 25.2 29.4 24.7 97 0.3 SE 11 15 6 8 1002.4 1002.3 134.0
06/01:30am 25.2 29.4 24.7 97 0.3 S 11 15 6 8 1002.6 1002.5 132.6
06/01:29am 25.2 29.4 24.7 97 0.3 S 11 15 6 8 1002.6 1002.5 132.6
06/01:00am 25.3 29.5 24.8 97 0.3 SW 11 17 6 9 1002.9 1002.8 128.8
06/12:30am 25.1 28.8 24.6 97 0.3 SSE 13 19 7 10 1002.8 1002.7 121.0
06/12:00am 25.3 29.9 24.8 97 0.3 S 9 15 5 8 1003.2 1003.1 98.4
 
Date/Time
EST
Temp
°C
App
Temp
°C
Dew
Point
Rel
Hum
%
Delta-T
°C
Wind Press
QNH
hPa
Press
MSL
hPa
Rain
since 9 am
mm
Dir
 
Spd
km/h
Gust
km/h
Spd
kts
Gust
kts
05/11:56pm 25.3 29.2 24.8 97 0.3 SSE 13 19 7 10 1003.1 1003.0 96.2
05/11:30pm 25.5 29.1 25.0 97 0.3 SSE 15 19 8 10 1003.1 1003.0 94.2
05/11:27pm 25.5 29.1 25.0 97 0.3 SSE 15 19 8 10 1003.1 1003.0 94.2
05/11:04pm 26.0 31.6 25.5 97 0.4 S 6 9 3 5 1003.5 1003.4 92.0
05/11:00pm 25.9 31.3 25.4 97 0.4 S 7 11 4 6 1003.6 1003.5 91.0
05/10:52pm 25.9 30.9 25.4 97 0.4 S 9 17 5 9 1003.6 1003.5 91.0
05/10:30pm 26.0 32.0 25.5 97 0.4 SE 4 7 2 4 1003.6 1003.5 89.4
05/10:00pm 26.0 31.9 25.3 96 0.5 WSW 4 7 2 4 1003.8 1003.7 86.0
05/09:54pm 26.0 32.3 25.3 96 0.5 WNW 2 7 1 4 1003.7 1003.6 85.6
05/09:30pm 26.3 32.1 25.8 97 0.4 NW 6 13 3 7 1004.0 1003.9 83.6
05/09:00pm 26.1 31.2 25.6 97 0.4 WSW 9 13 5 7 1003.8 1003.7 58.8
05/08:39pm 26.5 31.8 25.8 96 0.5 W 9 13 5 7 1003.9 1003.8 26.4
05/08:35pm 26.6 31.9 25.9 96 0.5 WSW 9 15 5 8 1003.8 1003.7 23.4
05/08:30pm 26.7 31.7 26.0 96 0.5 WSW 11 17 6 9 1003.6 1003.5 18.6
05/08:00pm 27.1 33.2 26.2 95 0.6 SW 6 7 3 4 1003.5 1003.4 6.8
05/07:55pm 27.2 33.4 26.3 95 0.6 WSW 6 9 3 5 1003.5 1003.4 6.4
05/07:41pm 27.2 32.8 26.3 95 0.6 S 9 11 5 6 1003.3 1003.2 5.6
05/07:40pm 27.3 33.0 26.4 95 0.6 S 9 11 5 6 1003.3 1003.2 5.6
05/07:30pm 27.3 34.3 26.4 95 0.6 SSE 2 6 1 3 1003.1 1003.0 5.6
05/07:26pm 27.3 34.3 26.4 95 0.6 SE 2 6 1 3 1003.0 1002.9 5.6
05/07:00pm 27.5 33.7 26.6 95 0.6 SSE 7 9 4 5 1002.9 1002.8 4.8
05/06:30pm 27.6 34.3 26.5 94 0.8 SSE 4 7 2 4 1002.2 1002.1 4.8
05/06:00pm 27.6 35.0 26.5 94 0.8 CALM 0 0 0 0 1001.8 1001.7 4.8
05/05:30pm 27.5 34.9 26.4 94 0.8 CALM 0 0 0 0 1001.3 1001.2 4.8
05/05:12pm 27.5 34.5 26.4 94 0.8 SSW 2 7 1 4 1001.0 1000.9 4.8
05/05:00pm 27.4 33.4 26.3 94 0.8 WSW 7 9 4 5 1001.0 1000.9 4.6
05/04:52pm 27.5 33.5 26.4 94 0.8 WSW 7 9 4 5 1001.3 1001.2 4.0
05/04:30pm 27.8 34.2 26.7 94 0.8 NW 6 9 3 5 1001.0 1000.9 2.6
05/04:00pm 27.9 35.2 26.3 91 1.1 CALM 0 6 0 3 1000.9 1000.8 2.4
05/03:31pm 27.6 34.2 25.8 90 1.3 N 2 7 1 4 1000.8 1000.7 1.8
05/03:30pm 27.7 34.7 25.9 90 1.3 CALM 0 6 0 3 1000.8 1000.7 1.8
05/03:15pm 27.6 33.4 25.8 90 1.3 N 6 9 3 5 1001.1 1001.0 1.2
05/03:00pm 27.8 32.9 25.6 88 1.6 ENE 9 13 5 7 1001.0 1000.9 0.4
05/02:30pm 28.0 32.5 25.8 88 1.6 ENE 13 19 7 10 1001.3 1001.2 0.0
05/02:00pm 28.4 32.4 25.0 82 2.4 NE 13 19 7 10 1001.9 1001.8 0.0
05/01:30pm 28.5 31.4 25.1 82 2.4 NNE 19 26 10 14 1002.4 1002.3 0.0
05/01:00pm 31.1 35.2 25.2 71 4.2 NNE 13 20 7 11 1002.5 1002.4 0.0
05/12:30pm 31.7 35.9 25.3 69 4.5 N 13 19 7 10 1002.8 1002.7 0.0
05/12:00pm 31.7 35.6 24.8 67 4.9 NW 13 19 7 10 1003.0 1002.9 0.0
05/11:30am 31.4 36.4 26.0 73 3.9 NW 11 15 6 8 1003.3 1003.2 0.0
05/11:00am 30.9 35.1 25.3 72 4.0 NNW 13 19 7 10 1003.9 1003.8 0.0
05/10:30am 29.9 34.9 24.8 74 3.6 WNW 7 13 4 7 1004.2 1004.1 0.0
05/10:00am 28.7 33.6 24.7 79 2.8 NW 7 11 4 6 1004.6 1004.5 0.0
05/09:30am 27.8 33.1 25.0 85 2.0 NNW 6 9 3 5 1004.9 1004.8 0.0
05/09:00am 26.6 31.6 24.8 90 1.3 W 7 9 4 5 1004.8 1004.7 2.4
05/08:30am 26.3 31.6 24.9 92 1.0 NW 6 9 3 5 1004.8 1004.7 2.4
05/08:00am 25.8 32.0 24.6 93 0.8 CALM 0 0 0 0 1004.6 1004.5 2.2
05/07:30am 25.2 31.2 24.3 95 0.6 CALM 0 0 0 0 1004.1 1004.0 2.2
05/07:00am 25.0 30.9 24.1 95 0.6 CALM 0 0 0 0 1003.5 1003.4 2.2
05/06:30am 24.7 30.2 24.0 96 0.5 NNW 2 6 1 3 1003.0 1002.9 2.2
05/06:00am 24.7 30.4 23.8 95 0.6 CALM 0 0 0 0 1002.8 1002.7 2.2
05/05:30am 24.5 29.7 23.6 95 0.6 NNW 2 6 1 3 1002.6 1002.5 2.2
05/05:00am 24.5 28.5 23.8 96 0.5 NNW 9 11 5 6 1002.5 1002.4 2.2
05/04:30am 24.4 29.3 23.7 96 0.5 N 4 7 2 4 1002.1 1002.0 2.2
05/04:00am 24.5 30.1 23.6 95 0.6 CALM 0 0 0 0 1001.9 1001.8 2.2
05/03:30am 24.8 30.6 23.9 95 0.6 CALM 0 0 0 0 1001.9 1001.8 2.2
05/03:00am 24.8 29.8 23.9 95 0.6 NW 4 7 2 4 1002.0 1001.9 2.2
05/02:30am 24.8 29.8 23.9 95 0.6 N 4 7 2 4 1002.0 1001.9 2.2
05/02:00am 24.8 28.9 23.9 95 0.6 N 9 11 5 6 1002.1 1002.0 2.2
05/01:30am 24.7 29.3 23.8 95 0.6 N 6 11 3 6 1002.4 1002.3 2.2
05/01:00am 24.8 30.5 23.8 94 0.7 CALM 0 2 0 1 1003.0 1002.9 2.2
05/12:30am 24.9 29.4 23.9 94 0.7 NNW 7 9 4 5 1003.5 1003.4 2.0
05/12:00am 25.0 28.3 23.8 93 0.8 NNW 13 17 7 9 1004.2 1004.1 1.4
 
Date/Time
EST
Temp
°C
App
Temp
°C
Dew
Point
Rel
Hum
%
Delta-T
°C
Wind Press
QNH
hPa
Press
MSL
hPa
Rain
since 9 am
mm
Dir
 
Spd
km/h
Gust
km/h
Spd
kts
Gust
kts
04/11:30pm 25.5 28.3 23.7 90 1.2 NW 15 19 8 10 1004.6 1004.5 0.8
04/11:00pm 25.9 28.8 23.8 88 1.4 WNW 15 20 8 11 1004.8 1004.7 0.6
04/10:30pm 26.8 30.7 24.8 89 1.4 WNW 13 20 7 11 1004.8 1004.7 0.4
04/10:00pm 27.1 31.5 25.7 92 1.0 NW 13 19 7 10 1004.7 1004.6 0.4
04/09:30pm 27.2 31.7 25.8 92 1.0 NNW 13 17 7 9 1004.7 1004.6 0.4
04/09:00pm 27.5 32.4 25.9 91 1.1 NNW 11 15 6 8 1004.5 1004.4 0.2
04/08:30pm 27.5 32.7 25.7 90 1.3 NNW 9 13 5 7 1004.4 1004.3 0.0
04/08:00pm 27.5 32.3 25.7 90 1.3 NW 11 17 6 9 1004.2 1004.1 0.0
04/07:30pm 27.4 31.8 25.6 90 1.3 NNW 13 20 7 11 1003.4 1003.3 0.0
04/07:00pm 27.8 30.9 25.4 87 1.7 NNW 19 26 10 14 1003.0 1002.9 0.0
04/06:30pm 28.5 31.8 25.1 82 2.4 NNW 17 24 9 13 1003.0 1002.9 0.0
04/06:00pm 29.0 32.2 25.0 79 2.8 NNW 17 24 9 13 1002.6 1002.5 0.0
04/05:30pm 29.4 32.6 24.9 77 3.2 NNW 17 26 9 14 1002.1 1002.0 0.0
04/05:00pm 30.2 32.5 24.4 71 4.1 NNW 20 28 11 15 1001.9 1001.8 0.0
04/04:30pm 30.0 32.4 24.6 73 3.8 NNW 20 28 11 15 1001.8 1001.7 0.0
04/04:00pm 31.4 35.2 26.7 76 3.4 NNW 20 28 11 15 1001.8 1001.7 0.0
04/03:30pm 30.6 33.9 25.7 75 3.5 NNW 19 26 10 14 1002.1 1002.0 0.0
04/03:00pm 30.4 33.8 25.2 74 3.7 N 17 26 9 14 1002.6 1002.5 0.0
04/02:30pm 30.8 34.4 25.6 74 3.7 NNW 17 24 9 13 1003.1 1003.0 0.0
04/02:00pm 30.3 34.0 25.8 77 3.2 NNW 17 24 9 13 1003.4 1003.3 0.0
04/01:30pm 30.1 33.6 25.4 76 3.3 NNW 17 22 9 12 1003.6 1003.5 0.0
04/01:00pm 29.5 33.0 25.5 79 2.8 NNW 17 24 9 13 1004.0 1003.9 0.0
04/12:30pm 29.3 34.1 26.3 84 2.1 NW 13 19 7 10 1004.2 1004.1 0.0
04/12:19pm 28.5 32.9 25.7 85 2.0 NNW 13 19 7 10 1004.3 1004.2 0.0
04/12:00pm 27.8 32.7 25.8 89 1.4 NNW 11 15 6 8 1004.6 1004.5 0.0
04/11:30am 27.2 31.9 25.6 91 1.1 N 11 13 6 7 1005.0 1004.9 0.0
04/11:20am 26.8 31.3 25.2 91 1.1 NNW 11 15 6 8 1005.0 1004.9 0.0
04/11:00am 26.4 31.8 25.4 94 0.7 N 7 11 4 6 1005.2 1005.1 0.0
04/10:30am 25.5 30.4 24.6 95 0.6 N 7 9 4 5 1005.6 1005.5 0.0
04/10:00am 25.2 29.9 24.3 95 0.6 NNE 7 9 4 5 1005.8 1005.7 0.0
04/09:30am 25.4 31.5 24.5 95 0.6 CALM 0 4 0 2 1006.4 1006.3 0.0
04/09:03am 25.1 30.7 24.2 95 0.6 SW 2 7 1 4 1006.7 1006.6 0.0
04/09:00am 25.2 30.5 24.3 95 0.6 SW 4 7 2 4 1006.6 1006.5 10.8
04/08:30am 24.8 28.6 24.1 96 0.5 WNW 11 15 6 8 1006.6 1006.5 10.8
04/08:20am 24.7 28.1 24.0 96 0.5 W 13 17 7 9 1006.3 1006.2 10.8
04/08:00am 24.5 28.5 23.8 96 0.5 WSW 9 13 5 7 1005.5 1005.4 10.8
04/07:30am 24.4 28.7 23.7 96 0.5 S 7 9 4 5 1005.1 1005.0 10.8
04/07:00am 24.3 28.8 23.6 96 0.5 SSE 6 9 3 5 1004.9 1004.8 10.8
04/06:30am 24.2 28.6 23.5 96 0.5 W 6 9 3 5 1004.9 1004.8 10.6
04/06:00am 24.1 27.8 23.2 95 0.6 NNE 9 11 5 6 1005.1 1005.0 9.8
04/05:30am 24.1 26.3 23.2 95 0.6 NNE 17 22 9 12 1005.7 1005.6 8.4
04/05:18am 24.5 28.4 23.6 95 0.6 NNE 9 13 5 7 1005.5 1005.4 8.4
04/05:00am 24.8 27.7 23.8 94 0.7 WSW 15 24 8 13 1005.4 1005.3 7.2
04/04:59am 24.9 27.8 23.9 94 0.7 WSW 15 24 8 13 1005.4 1005.3 7.0
04/04:49am 25.3 26.0 24.3 94 0.7 WSW 28 52 15 28 1005.6 1005.5 5.2
04/04:45am 25.6 27.4 24.2 92 1.0 SW 22 52 12 28 1005.5 1005.4 2.4
04/04:30am 26.3 30.9 25.3 94 0.7 SSW 11 17 6 9 1005.3 1005.2 0.6
04/04:15am 26.3 31.2 25.3 94 0.7 SSW 9 13 5 7 1005.1 1005.0 0.4
04/04:00am 26.3 31.3 25.4 95 0.6 SSW 9 11 5 6 1005.0 1004.9 0.4
04/03:30am 26.2 31.5 25.3 95 0.6 S 7 9 4 5 1004.6 1004.5 0.4
04/03:00am 26.2 32.8 25.2 94 0.7 CALM 0 4 0 2 1004.1 1004.0 0.4
04/02:30am 26.4 32.8 25.5 95 0.6 WNW 2 6 1 3 1004.5 1004.4 0.4
04/02:00am 26.4 32.0 25.4 94 0.7 NW 6 9 3 5 1004.5 1004.4 0.4
04/01:30am 26.7 33.5 25.5 93 0.8 CALM 0 0 0 0 1004.7 1004.6 0.4
04/01:00am 26.9 33.8 25.7 93 0.8 CALM 0 0 0 0 1005.1 1005.0 0.4
04/12:30am 27.0 34.0 25.8 93 0.8 CALM 0 0 0 0 1005.8 1005.7 0.4
04/12:00am 26.8 32.9 25.6 93 0.8 ENE 4 7 2 4 1006.4 1006.3 0.4
 
Date/Time
EST
Temp
°C
App
Temp
°C
Dew
Point
Rel
Hum
%
Delta-T
°C
Wind Press
QNH
hPa
Press
MSL
hPa
Rain
since 9 am
mm
Dir
 
Spd
km/h
Gust
km/h
Spd
kts
Gust
kts
03/11:30pm 27.3 34.2 25.7 91 1.1 CALM 0 0 0 0 1006.7 1006.6 0.4
03/11:00pm 27.3 33.9 25.3 89 1.4 CALM 0 0 0 0 1007.2 1007.1 0.4
03/10:30pm 27.0 32.4 25.4 91 1.1 N 7 11 4 6 1007.1 1007.0 0.4
03/10:00pm 26.8 32.1 25.2 91 1.1 WNW 7 9 4 5 1006.8 1006.7 0.4
03/09:30pm 26.9 31.7 25.1 90 1.3 NW 9 13 5 7 1006.1 1006.0 0.4
03/09:00pm 26.8 31.8 25.4 92 1.0 N 9 11 5 6 1005.4 1005.3 0.4
03/08:30pm 27.0 32.1 25.6 92 1.0 NW 9 15 5 8 1005.6 1005.5 0.4
03/08:00pm 27.0 31.7 25.6 92 1.0 N 11 13 6 7 1005.1 1005.0 0.4
03/07:30pm 27.0 32.4 25.4 91 1.1 N 7 11 4 6 1005.2 1005.1 0.4
03/07:00pm 27.2 32.2 25.4 90 1.3 N 9 13 5 7 1005.1 1005.0 0.4
03/06:30pm 27.4 33.1 25.6 90 1.3 NNW 6 9 3 5 1004.8 1004.7 0.4
03/06:00pm 27.7 34.2 25.1 86 1.8 CALM 0 0 0 0 1004.5 1004.4 0.4
03/05:36pm 28.0 34.7 25.4 86 1.8 CALM 0 2 0 1 1004.0 1003.9 0.4
03/05:30pm 27.9 34.2 25.3 86 1.8 WNW 2 7 1 4 1003.9 1003.8 0.4
03/05:02pm 28.3 32.6 24.9 82 2.4 WNW 11 15 6 8 1004.1 1004.0 0.0
03/05:00pm 28.3 32.5 24.7 81 2.5 WNW 11 15 6 8 1004.0 1003.9 0.0
03/04:30pm 27.8 31.4 23.8 79 2.8 WNW 11 17 6 9 1002.9 1002.8 0.0
03/04:00pm 28.3 30.7 23.7 76 3.2 WNW 17 24 9 13 1003.2 1003.1 0.0
03/03:30pm 30.1 29.8 23.8 69 4.4 WNW 32 46 17 25 1003.7 1003.6 0.0
03/03:00pm 32.0 35.1 26.3 72 4.1 N 22 32 12 17 1003.6 1003.5 0.0
03/02:30pm 33.3 35.5 26.6 68 4.8 NNW 28 41 15 22 1003.7 1003.6 0.0
03/02:00pm 33.6 34.4 25.0 60 6.1 NNW 30 39 16 21 1004.0 1003.9 0.0
03/01:30pm 34.3 35.1 24.5 56 6.9 NNW 28 41 15 22 1003.9 1003.8 0.0
03/01:00pm 34.4 35.1 24.3 55 7.1 NNW 28 43 15 23 1004.2 1004.1 0.0
03/12:30pm 34.9 36.9 25.1 56 7.0 N 24 35 13 19 1004.7 1004.6 0.0
03/12:00pm 34.8 37.1 26.2 61 6.2 NNW 26 33 14 18 1005.3 1005.2 0.0
03/11:30am 34.4 37.0 26.1 62 6.0 NNW 24 37 13 20 1005.9 1005.8 0.0
03/11:00am 34.0 37.0 26.7 65 5.3 NNW 24 32 13 17 1006.4 1006.3 0.0
03/10:30am 32.8 34.9 25.3 64 5.3 NNW 24 35 13 19 1006.8 1006.7 0.0

Other Formats:

Comma delimited format used in spreadsheet applications
http://www.bom.gov.au/fwo/IDQ60801/IDQ60801.94365.axf

JavaScript Object Notation format (JSON) in row-major order
http://www.bom.gov.au/fwo/IDQ60801/IDQ60801.94365.json